Janet — 9HSL8 — position and weather

sailwx.info

Track history (hours):
 
Tides and Currents Weather Stations Pressure Air Temp Water Temp Dewpoint Dewpoint Depression Visibility Wind Speed Wind Dir Waves Ship Positions

Janet

Last reported at 2015-Feb-26 21:33 UTC. Time now 2015-Feb-27 06:08 UTC.
Position N 37°39' E 023°43'.

Length 90 m; draft 6.1 m.

Type: Cargo ship. MMSI: 256371000.

Date/timePositionNaut miles runAvg speedWind from/ knotsBaromVisibWave heightAir tempDewpointWater temp
2015-Feb-26 21:33N 37°39' E 023°43'10 9.8
2015-Feb-26 20:33N 37°47' E 023°37'9 9.4
2015-Feb-26 19:33N 37°51' E 023°26'3 0.2
2015-Feb-26 03:04N 37°50' E 023°30'4 8.7
2015-Feb-26 02:33N 37°50' E 023°36'8 7.6
2015-Feb-26 01:34N 37°45' E 023°42'9 7.5
2015-Feb-26 00:23N 37°36' E 023°44'  
2015-Feb-23 19:06N 36°42' E 014°31'610.3
2015-Feb-23 18:34N 36°44' E 014°25'1010.1
2015-Feb-23 17:34N 36°48' E 014°13'10 9.8
2015-Feb-23 16:33N 36°53' E 014°02'1010.4
2015-Feb-23 15:33N 36°57' E 013°50'  
2015-Feb-18 15:20N 35°56' W 005°15'4 5.0
2015-Feb-18 14:34N 35°54' W 005°19'0 0.1
2015-Feb-18 13:31N 35°54' W 005°19'0 0.0
2015-Feb-18 12:31N 35°54' W 005°19'0 0.0
2015-Feb-18 11:31N 35°54' W 005°19'0 0.0
2015-Feb-18 10:31N 35°54' W 005°19'1 0.7
2015-Feb-18 09:33N 35°54' W 005°18'1 1.3
2015-Feb-18 08:33N 35°55' W 005°19'4 3.8
2015-Feb-18 07:33N 35°56' W 005°24'  
Track history (hours):
 
Tides and Currents Weather Stations Pressure Air Temp Water Temp Dewpoint Dewpoint Depression Visibility Wind Speed Wind Dir Waves Ship Positions

Janet

Last reported at 2015-Feb-26 21:33 UTC. Time now 2015-Feb-27 06:08 UTC.
Position N 37°39' E 023°43'.

Length 90 m; draft 6.1 m.

Type: Cargo ship. MMSI: 256371000.

Date/timePositionNaut miles runAvg speedWind from/ knotsBaromVisibWave heightAir tempDewpointWater temp
2015-Feb-26 21:33N 37°39' E 023°43'10 9.8
2015-Feb-26 20:33N 37°47' E 023°37'9 9.4
2015-Feb-26 19:33N 37°51' E 023°26'3 0.2
2015-Feb-26 03:04N 37°50' E 023°30'4 8.7
2015-Feb-26 02:33N 37°50' E 023°36'8 7.6
2015-Feb-26 01:34N 37°45' E 023°42'9 7.5
2015-Feb-26 00:23N 37°36' E 023°44'  
2015-Feb-23 19:06N 36°42' E 014°31'610.3
2015-Feb-23 18:34N 36°44' E 014°25'1010.1
2015-Feb-23 17:34N 36°48' E 014°13'10 9.8
2015-Feb-23 16:33N 36°53' E 014°02'1010.4
2015-Feb-23 15:33N 36°57' E 013°50'  
2015-Feb-18 15:20N 35°56' W 005°15'4 5.0
2015-Feb-18 14:34N 35°54' W 005°19'0 0.1
2015-Feb-18 13:31N 35°54' W 005°19'0 0.0
2015-Feb-18 12:31N 35°54' W 005°19'0 0.0
2015-Feb-18 11:31N 35°54' W 005°19'0 0.0
2015-Feb-18 10:31N 35°54' W 005°19'1 0.7
2015-Feb-18 09:33N 35°54' W 005°18'1 1.3
2015-Feb-18 08:33N 35°55' W 005°19'4 3.8
2015-Feb-18 07:33N 35°56' W 005°24'  

Dump ship's entire track history